sensor_id;sensor_type;location;lat;lon;timestamp;P1;durP1;ratioP1;P2;durP2;ratioP2
22256;SDS011;11297;42.686;23.374;2022-08-01T00:01:33;7.33;;;5.23;;
22256;SDS011;11297;42.686;23.374;2022-08-01T00:03:58;5.60;;;5.10;;
22256;SDS011;11297;42.686;23.374;2022-08-01T00:06:24;5.20;;;4.70;;
22256;SDS011;11297;42.686;23.374;2022-08-01T00:08:49;6.03;;;4.87;;
22256;SDS011;11297;42.686;23.374;2022-08-01T00:11:15;5.17;;;4.67;;
22256;SDS011;11297;42.686;23.374;2022-08-01T00:13:40;6.50;;;5.73;;
22256;SDS011;11297;42.686;23.374;2022-08-01T00:16:05;5.57;;;5.07;;
22256;SDS011;11297;42.686;23.374;2022-08-01T00:18:31;6.20;;;5.70;;
22256;SDS011;11297;42.686;23.374;2022-08-01T00:20:56;6.73;;;5.67;;
22256;SDS011;11297;42.686;23.374;2022-08-01T00:23:22;8.80;;;5.77;;
22256;SDS011;11297;42.686;23.374;2022-08-01T00:25:47;7.20;;;6.50;;
22256;SDS011;11297;42.686;23.374;2022-08-01T00:28:13;6.57;;;5.70;;
22256;SDS011;11297;42.686;23.374;2022-08-01T00:30:38;6.47;;;5.80;;
22256;SDS011;11297;42.686;23.374;2022-08-01T00:33:04;5.90;;;5.40;;
22256;SDS011;11297;42.686;23.374;2022-08-01T00:35:29;6.00;;;5.40;;
22256;SDS011;11297;42.686;23.374;2022-08-01T00:37:55;5.90;;;5.40;;
22256;SDS011;11297;42.686;23.374;2022-08-01T00:40:20;5.40;;;4.90;;
22256;SDS011;11297;42.686;23.374;2022-08-01T00:42:46;6.03;;;5.40;;
22256;SDS011;11297;42.686;23.374;2022-08-01T00:45:11;5.37;;;4.87;;
22256;SDS011;11297;42.686;23.374;2022-08-01T00:47:37;7.23;;;5.80;;
22256;SDS011;11297;42.686;23.374;2022-08-01T00:50:03;7.63;;;5.07;;
22256;SDS011;11297;42.686;23.374;2022-08-01T00:52:30;4.87;;;4.47;;
22256;SDS011;11297;42.686;23.374;2022-08-01T00:54:56;5.33;;;4.63;;
22256;SDS011;11297;42.686;23.374;2022-08-01T00:57:21;5.67;;;5.10;;
22256;SDS011;11297;42.686;23.374;2022-08-01T00:59:47;5.17;;;4.77;;
22256;SDS011;11297;42.686;23.374;2022-08-01T01:02:12;4.90;;;4.33;;
22256;SDS011;11297;42.686;23.374;2022-08-01T01:04:38;5.10;;;4.60;;
22256;SDS011;11297;42.686;23.374;2022-08-01T01:07:09;4.80;;;4.47;;
22256;SDS011;11297;42.686;23.374;2022-08-01T01:12:39;4.47;;;4.07;;
22256;SDS011;11297;42.686;23.374;2022-08-01T01:15:16;4.20;;;3.90;;
22256;SDS011;11297;42.686;23.374;2022-08-01T01:20:20;4.87;;;4.47;;
22256;SDS011;11297;42.686;23.374;2022-08-01T01:26:09;4.67;;;4.10;;
22256;SDS011;11297;42.686;23.374;2022-08-01T01:31:47;5.17;;;4.43;;
22256;SDS011;11297;42.686;23.374;2022-08-01T01:34:17;4.40;;;4.00;;
22256;SDS011;11297;42.686;23.374;2022-08-01T01:36:45;6.73;;;4.20;;
22256;SDS011;11297;42.686;23.374;2022-08-01T01:39:13;4.53;;;4.13;;
22256;SDS011;11297;42.686;23.374;2022-08-01T01:41:39;4.40;;;4.00;;
22256;SDS011;11297;42.686;23.374;2022-08-01T01:44:06;4.30;;;3.90;;
22256;SDS011;11297;42.686;23.374;2022-08-01T01:46:35;4.23;;;3.93;;
22256;SDS011;11297;42.686;23.374;2022-08-01T01:49:01;4.30;;;3.90;;
22256;SDS011;11297;42.686;23.374;2022-08-01T01:51:28;4.63;;;3.93;;
22256;SDS011;11297;42.686;23.374;2022-08-01T01:53:55;4.73;;;4.10;;
22256;SDS011;11297;42.686;23.374;2022-08-01T01:56:22;3.27;;;3.00;;
22256;SDS011;11297;42.686;23.374;2022-08-01T01:58:51;4.80;;;4.40;;
22256;SDS011;11297;42.686;23.374;2022-08-01T02:01:20;5.23;;;3.27;;
22256;SDS011;11297;42.686;23.374;2022-08-01T02:03:49;6.80;;;3.73;;
22256;SDS011;11297;42.686;23.374;2022-08-01T02:06:16;4.03;;;3.30;;
22256;SDS011;11297;42.686;23.374;2022-08-01T02:08:42;4.00;;;3.37;;
22256;SDS011;11297;42.686;23.374;2022-08-01T02:11:09;3.97;;;3.67;;
22256;SDS011;11297;42.686;23.374;2022-08-01T02:13:44;5.23;;;3.33;;
22256;SDS011;11297;42.686;23.374;2022-08-01T02:16:15;3.50;;;3.20;;
22256;SDS011;11297;42.686;23.374;2022-08-01T02:18:41;4.43;;;3.30;;
22256;SDS011;11297;42.686;23.374;2022-08-01T02:21:08;4.13;;;3.63;;
22256;SDS011;11297;42.686;23.374;2022-08-01T02:23:37;6.33;;;3.77;;
22256;SDS011;11297;42.686;23.374;2022-08-01T02:26:07;4.17;;;3.77;;
22256;SDS011;11297;42.686;23.374;2022-08-01T02:28:47;4.07;;;3.67;;
22256;SDS011;11297;42.686;23.374;2022-08-01T02:31:19;4.50;;;3.70;;
22256;SDS011;11297;42.686;23.374;2022-08-01T02:34:06;4.00;;;3.70;;
22256;SDS011;11297;42.686;23.374;2022-08-01T02:36:34;4.20;;;3.30;;
22256;SDS011;11297;42.686;23.374;2022-08-01T02:39:02;3.70;;;3.33;;
22256;SDS011;11297;42.686;23.374;2022-08-01T02:41:39;4.63;;;2.97;;
22256;SDS011;11297;42.686;23.374;2022-08-01T02:44:07;3.50;;;3.20;;
22256;SDS011;11297;42.686;23.374;2022-08-01T02:46:38;4.43;;;3.13;;
22256;SDS011;11297;42.686;23.374;2022-08-01T02:49:08;6.17;;;3.60;;
22256;SDS011;11297;42.686;23.374;2022-08-01T02:51:36;4.37;;;3.80;;
22256;SDS011;11297;42.686;23.374;2022-08-01T02:54:05;3.60;;;3.30;;
22256;SDS011;11297;42.686;23.374;2022-08-01T02:56:39;5.80;;;3.53;;
22256;SDS011;11297;42.686;23.374;2022-08-01T02:59:11;4.80;;;3.40;;
22256;SDS011;11297;42.686;23.374;2022-08-01T03:01:39;4.97;;;3.67;;
22256;SDS011;11297;42.686;23.374;2022-08-01T03:04:07;3.13;;;2.90;;
22256;SDS011;11297;42.686;23.374;2022-08-01T03:06:33;3.77;;;3.37;;
22256;SDS011;11297;42.686;23.374;2022-08-01T03:09:01;3.80;;;3.50;;
22256;SDS011;11297;42.686;23.374;2022-08-01T03:11:28;3.77;;;3.47;;
22256;SDS011;11297;42.686;23.374;2022-08-01T03:13:55;5.67;;;3.60;;
22256;SDS011;11297;42.686;23.374;2022-08-01T03:16:22;3.37;;;3.07;;
22256;SDS011;11297;42.686;23.374;2022-08-01T03:18:51;3.60;;;3.20;;
22256;SDS011;11297;42.686;23.374;2022-08-01T03:21:19;3.97;;;3.40;;
22256;SDS011;11297;42.686;23.374;2022-08-01T03:23:47;3.90;;;3.60;;
22256;SDS011;11297;42.686;23.374;2022-08-01T03:26:15;6.07;;;3.43;;
22256;SDS011;11297;42.686;23.374;2022-08-01T03:28:41;3.90;;;3.60;;
22256;SDS011;11297;42.686;23.374;2022-08-01T03:31:09;4.73;;;3.53;;
22256;SDS011;11297;42.686;23.374;2022-08-01T03:33:37;4.80;;;3.33;;
22256;SDS011;11297;42.686;23.374;2022-08-01T03:36:03;5.07;;;3.50;;
22256;SDS011;11297;42.686;23.374;2022-08-01T03:38:33;5.10;;;3.50;;
22256;SDS011;11297;42.686;23.374;2022-08-01T03:41:05;6.97;;;4.07;;
22256;SDS011;11297;42.686;23.374;2022-08-01T03:43:38;6.00;;;4.07;;
22256;SDS011;11297;42.686;23.374;2022-08-01T03:46:11;7.83;;;3.20;;
22256;SDS011;11297;42.686;23.374;2022-08-01T03:48:43;4.10;;;3.70;;
22256;SDS011;11297;42.686;23.374;2022-08-01T03:51:13;6.40;;;3.80;;
22256;SDS011;11297;42.686;23.374;2022-08-01T03:53:41;12.77;;;6.90;;
22256;SDS011;11297;42.686;23.374;2022-08-01T03:56:09;4.70;;;4.30;;
22256;SDS011;11297;42.686;23.374;2022-08-01T03:58:38;7.80;;;4.07;;
22256;SDS011;11297;42.686;23.374;2022-08-01T04:01:05;7.57;;;3.93;;
22256;SDS011;11297;42.686;23.374;2022-08-01T04:03:32;4.00;;;3.70;;
22256;SDS011;11297;42.686;23.374;2022-08-01T04:05:58;4.00;;;3.43;;
22256;SDS011;11297;42.686;23.374;2022-08-01T04:08:33;4.00;;;3.60;;
22256;SDS011;11297;42.686;23.374;2022-08-01T04:11:02;4.60;;;4.20;;
22256;SDS011;11297;42.686;23.374;2022-08-01T04:13:27;7.73;;;4.20;;
22256;SDS011;11297;42.686;23.374;2022-08-01T04:15:53;6.97;;;4.37;;
22256;SDS011;11297;42.686;23.374;2022-08-01T04:18:19;4.97;;;4.47;;
22256;SDS011;11297;42.686;23.374;2022-08-01T04:20:46;5.43;;;4.17;;
22256;SDS011;11297;42.686;23.374;2022-08-01T04:23:11;6.73;;;4.50;;
22256;SDS011;11297;42.686;23.374;2022-08-01T04:25:41;5.07;;;3.70;;
22256;SDS011;11297;42.686;23.374;2022-08-01T04:28:10;8.47;;;4.60;;
22256;SDS011;11297;42.686;23.374;2022-08-01T04:30:41;8.03;;;4.77;;
22256;SDS011;11297;42.686;23.374;2022-08-01T04:33:10;7.67;;;4.67;;
22256;SDS011;11297;42.686;23.374;2022-08-01T04:35:38;9.20;;;5.30;;
22256;SDS011;11297;42.686;23.374;2022-08-01T04:38:06;6.23;;;4.53;;
22256;SDS011;11297;42.686;23.374;2022-08-01T04:40:34;7.37;;;4.63;;
22256;SDS011;11297;42.686;23.374;2022-08-01T04:43:01;8.00;;;5.00;;
22256;SDS011;11297;42.686;23.374;2022-08-01T04:45:27;9.73;;;5.93;;
22256;SDS011;11297;42.686;23.374;2022-08-01T04:47:53;10.27;;;4.90;;
22256;SDS011;11297;42.686;23.374;2022-08-01T04:50:19;9.90;;;5.20;;
22256;SDS011;11297;42.686;23.374;2022-08-01T04:52:46;6.87;;;6.00;;
22256;SDS011;11297;42.686;23.374;2022-08-01T04:55:12;7.40;;;5.90;;
22256;SDS011;11297;42.686;23.374;2022-08-01T04:57:39;8.23;;;5.63;;
22256;SDS011;11297;42.686;23.374;2022-08-01T05:00:07;9.53;;;5.87;;
22256;SDS011;11297;42.686;23.374;2022-08-01T05:02:33;14.63;;;10.07;;
22256;SDS011;11297;42.686;23.374;2022-08-01T05:04:59;11.33;;;6.40;;
22256;SDS011;11297;42.686;23.374;2022-08-01T05:07:24;9.73;;;6.00;;
22256;SDS011;11297;42.686;23.374;2022-08-01T05:09:50;9.63;;;5.77;;
22256;SDS011;11297;42.686;23.374;2022-08-01T05:12:15;9.07;;;7.30;;
22256;SDS011;11297;42.686;23.374;2022-08-01T05:14:41;7.57;;;5.37;;
22256;SDS011;11297;42.686;23.374;2022-08-01T05:17:07;7.60;;;5.20;;
22256;SDS011;11297;42.686;23.374;2022-08-01T05:19:34;7.03;;;5.43;;
22256;SDS011;11297;42.686;23.374;2022-08-01T05:22:01;8.70;;;5.73;;
22256;SDS011;11297;42.686;23.374;2022-08-01T05:24:29;11.00;;;5.63;;
22256;SDS011;11297;42.686;23.374;2022-08-01T05:26:58;7.03;;;4.40;;
22256;SDS011;11297;42.686;23.374;2022-08-01T05:29:24;9.07;;;6.00;;
22256;SDS011;11297;42.686;23.374;2022-08-01T05:31:50;8.93;;;4.60;;
22256;SDS011;11297;42.686;23.374;2022-08-01T05:34:16;6.43;;;4.63;;
22256;SDS011;11297;42.686;23.374;2022-08-01T05:36:42;8.97;;;3.87;;
22256;SDS011;11297;42.686;23.374;2022-08-01T05:39:07;7.53;;;4.10;;
22256;SDS011;11297;42.686;23.374;2022-08-01T05:41:33;4.90;;;4.00;;
22256;SDS011;11297;42.686;23.374;2022-08-01T05:43:58;6.60;;;4.13;;
22256;SDS011;11297;42.686;23.374;2022-08-01T05:46:24;5.33;;;3.90;;
22256;SDS011;11297;42.686;23.374;2022-08-01T05:48:49;4.87;;;4.30;;
22256;SDS011;11297;42.686;23.374;2022-08-01T05:51:15;4.80;;;3.73;;
22256;SDS011;11297;42.686;23.374;2022-08-01T05:53:40;5.40;;;3.40;;
22256;SDS011;11297;42.686;23.374;2022-08-01T05:56:06;5.63;;;3.57;;
22256;SDS011;11297;42.686;23.374;2022-08-01T05:58:31;7.27;;;3.40;;
22256;SDS011;11297;42.686;23.374;2022-08-01T06:00:57;3.97;;;3.20;;
22256;SDS011;11297;42.686;23.374;2022-08-01T06:03:23;4.23;;;3.63;;
22256;SDS011;11297;42.686;23.374;2022-08-01T06:05:48;3.87;;;3.20;;
22256;SDS011;11297;42.686;23.374;2022-08-01T06:08:14;4.23;;;3.10;;
22256;SDS011;11297;42.686;23.374;2022-08-01T06:10:39;6.30;;;4.70;;
22256;SDS011;11297;42.686;23.374;2022-08-01T06:13:05;5.50;;;3.10;;
22256;SDS011;11297;42.686;23.374;2022-08-01T06:15:30;3.67;;;3.37;;
22256;SDS011;11297;42.686;23.374;2022-08-01T06:17:57;5.57;;;3.00;;
22256;SDS011;11297;42.686;23.374;2022-08-01T06:20:22;5.40;;;3.70;;
22256;SDS011;11297;42.686;23.374;2022-08-01T06:22:47;4.10;;;3.33;;
22256;SDS011;11297;42.686;23.374;2022-08-01T06:25:13;4.57;;;3.00;;
22256;SDS011;11297;42.686;23.374;2022-08-01T06:27:38;3.57;;;3.07;;
22256;SDS011;11297;42.686;23.374;2022-08-01T06:30:04;4.90;;;2.90;;
22256;SDS011;11297;42.686;23.374;2022-08-01T06:32:30;2.80;;;2.60;;
22256;SDS011;11297;42.686;23.374;2022-08-01T06:34:56;7.70;;;3.13;;
22256;SDS011;11297;42.686;23.374;2022-08-01T06:37:21;3.90;;;2.40;;
22256;SDS011;11297;42.686;23.374;2022-08-01T06:39:47;2.63;;;2.40;;
22256;SDS011;11297;42.686;23.374;2022-08-01T06:42:14;4.83;;;2.90;;
22256;SDS011;11297;42.686;23.374;2022-08-01T06:44:40;3.00;;;2.47;;
22256;SDS011;11297;42.686;23.374;2022-08-01T06:47:06;4.50;;;2.80;;
22256;SDS011;11297;42.686;23.374;2022-08-01T06:49:31;3.40;;;3.10;;
22256;SDS011;11297;42.686;23.374;2022-08-01T06:51:57;7.90;;;3.30;;
22256;SDS011;11297;42.686;23.374;2022-08-01T06:54:22;4.30;;;3.20;;
22256;SDS011;11297;42.686;23.374;2022-08-01T06:56:48;4.37;;;3.00;;
22256;SDS011;11297;42.686;23.374;2022-08-01T06:59:13;7.83;;;3.47;;
22256;SDS011;11297;42.686;23.374;2022-08-01T07:01:39;7.83;;;6.87;;
22256;SDS011;11297;42.686;23.374;2022-08-01T07:04:04;3.73;;;3.33;;
22256;SDS011;11297;42.686;23.374;2022-08-01T07:06:30;4.43;;;3.30;;
22256;SDS011;11297;42.686;23.374;2022-08-01T07:08:55;3.33;;;3.00;;
22256;SDS011;11297;42.686;23.374;2022-08-01T07:11:21;5.63;;;3.03;;
22256;SDS011;11297;42.686;23.374;2022-08-01T07:13:48;3.17;;;2.87;;
22256;SDS011;11297;42.686;23.374;2022-08-01T07:16:14;4.47;;;2.03;;
22256;SDS011;11297;42.686;23.374;2022-08-01T07:18:40;2.37;;;2.17;;
22256;SDS011;11297;42.686;23.374;2022-08-01T07:21:06;3.33;;;3.07;;
22256;SDS011;11297;42.686;23.374;2022-08-01T07:23:32;5.10;;;2.87;;
22256;SDS011;11297;42.686;23.374;2022-08-01T07:25:57;2.83;;;2.43;;
22256;SDS011;11297;42.686;23.374;2022-08-01T07:28:23;2.83;;;2.43;;
22256;SDS011;11297;42.686;23.374;2022-08-01T07:30:49;4.57;;;3.20;;
22256;SDS011;11297;42.686;23.374;2022-08-01T07:33:14;4.63;;;3.33;;
22256;SDS011;11297;42.686;23.374;2022-08-01T07:35:40;3.70;;;2.50;;
22256;SDS011;11297;42.686;23.374;2022-08-01T07:38:07;3.10;;;2.43;;
22256;SDS011;11297;42.686;23.374;2022-08-01T07:40:33;2.60;;;2.20;;
22256;SDS011;11297;42.686;23.374;2022-08-01T07:42:58;2.43;;;2.23;;
22256;SDS011;11297;42.686;23.374;2022-08-01T07:45:24;4.60;;;3.40;;
22256;SDS011;11297;42.686;23.374;2022-08-01T07:47:49;4.73;;;2.60;;
22256;SDS011;11297;42.686;23.374;2022-08-01T07:50:15;3.30;;;2.57;;
22256;SDS011;11297;42.686;23.374;2022-08-01T07:52:41;4.37;;;2.73;;
22256;SDS011;11297;42.686;23.374;2022-08-01T07:55:07;7.00;;;3.33;;
22256;SDS011;11297;42.686;23.374;2022-08-01T07:57:33;3.70;;;3.07;;
22256;SDS011;11297;42.686;23.374;2022-08-01T07:59:58;2.73;;;2.40;;
22256;SDS011;11297;42.686;23.374;2022-08-01T08:02:24;3.63;;;2.93;;
22256;SDS011;11297;42.686;23.374;2022-08-01T08:04:49;3.43;;;2.70;;
22256;SDS011;11297;42.686;23.374;2022-08-01T08:07:15;4.63;;;3.47;;
22256;SDS011;11297;42.686;23.374;2022-08-01T08:09:40;4.53;;;2.63;;
22256;SDS011;11297;42.686;23.374;2022-08-01T08:12:06;4.47;;;3.40;;
22256;SDS011;11297;42.686;23.374;2022-08-01T08:14:31;3.70;;;2.33;;
22256;SDS011;11297;42.686;23.374;2022-08-01T08:16:57;3.20;;;2.73;;
22256;SDS011;11297;42.686;23.374;2022-08-01T08:19:22;3.40;;;2.57;;
22256;SDS011;11297;42.686;23.374;2022-08-01T08:21:48;3.13;;;2.70;;
22256;SDS011;11297;42.686;23.374;2022-08-01T08:24:13;5.43;;;3.37;;
22256;SDS011;11297;42.686;23.374;2022-08-01T08:26:45;3.67;;;3.30;;
22256;SDS011;11297;42.686;23.374;2022-08-01T08:29:11;4.83;;;3.93;;
22256;SDS011;11297;42.686;23.374;2022-08-01T08:31:37;5.67;;;3.77;;
22256;SDS011;11297;42.686;23.374;2022-08-01T08:34:02;7.17;;;3.40;;
22256;SDS011;11297;42.686;23.374;2022-08-01T08:36:28;5.37;;;3.27;;
22256;SDS011;11297;42.686;23.374;2022-08-01T08:38:53;7.00;;;3.30;;
22256;SDS011;11297;42.686;23.374;2022-08-01T08:41:19;3.57;;;2.53;;
22256;SDS011;11297;42.686;23.374;2022-08-01T08:43:46;7.27;;;2.87;;
22256;SDS011;11297;42.686;23.374;2022-08-01T08:46:12;4.47;;;2.70;;
22256;SDS011;11297;42.686;23.374;2022-08-01T08:48:39;5.57;;;2.50;;
22256;SDS011;11297;42.686;23.374;2022-08-01T08:51:06;4.83;;;2.40;;
22256;SDS011;11297;42.686;23.374;2022-08-01T08:53:33;4.67;;;2.47;;
22256;SDS011;11297;42.686;23.374;2022-08-01T08:56:01;4.43;;;2.67;;
22256;SDS011;11297;42.686;23.374;2022-08-01T08:58:27;2.63;;;2.20;;
22256;SDS011;11297;42.686;23.374;2022-08-01T09:00:53;5.63;;;3.10;;
22256;SDS011;11297;42.686;23.374;2022-08-01T09:03:20;4.63;;;2.73;;
22256;SDS011;11297;42.686;23.374;2022-08-01T09:05:45;3.67;;;2.67;;
22256;SDS011;11297;42.686;23.374;2022-08-01T09:08:11;3.37;;;2.87;;
22256;SDS011;11297;42.686;23.374;2022-08-01T09:10:37;5.33;;;2.30;;
22256;SDS011;11297;42.686;23.374;2022-08-01T09:13:03;3.67;;;2.10;;
22256;SDS011;11297;42.686;23.374;2022-08-01T09:18:07;3.67;;;2.33;;
22256;SDS011;11297;42.686;23.374;2022-08-01T09:20:33;9.10;;;2.83;;
22256;SDS011;11297;42.686;23.374;2022-08-01T09:23:01;2.67;;;2.47;;
22256;SDS011;11297;42.686;23.374;2022-08-01T09:25:28;3.73;;;2.70;;
22256;SDS011;11297;42.686;23.374;2022-08-01T09:28:03;3.07;;;2.40;;
22256;SDS011;11297;42.686;23.374;2022-08-01T09:30:30;3.77;;;3.37;;
22256;SDS011;11297;42.686;23.374;2022-08-01T09:33:04;7.27;;;3.50;;
22256;SDS011;11297;42.686;23.374;2022-08-01T09:35:30;8.90;;;4.17;;
22256;SDS011;11297;42.686;23.374;2022-08-01T09:38:15;7.30;;;2.40;;
22256;SDS011;11297;42.686;23.374;2022-08-01T09:40:51;9.63;;;3.30;;
22256;SDS011;11297;42.686;23.374;2022-08-01T09:43:19;4.23;;;2.27;;
22256;SDS011;11297;42.686;23.374;2022-08-01T09:45:46;6.13;;;2.73;;
22256;SDS011;11297;42.686;23.374;2022-08-01T09:48:12;7.87;;;3.43;;
22256;SDS011;11297;42.686;23.374;2022-08-01T09:50:41;3.27;;;2.50;;
22256;SDS011;11297;42.686;23.374;2022-08-01T09:53:08;3.03;;;2.17;;
22256;SDS011;11297;42.686;23.374;2022-08-01T09:55:34;3.10;;;2.07;;
22256;SDS011;11297;42.686;23.374;2022-08-01T09:58:00;2.83;;;2.20;;
22256;SDS011;11297;42.686;23.374;2022-08-01T10:00:26;3.00;;;2.27;;
22256;SDS011;11297;42.686;23.374;2022-08-01T10:02:52;2.23;;;2.03;;
22256;SDS011;11297;42.686;23.374;2022-08-01T10:05:18;2.80;;;2.40;;
22256;SDS011;11297;42.686;23.374;2022-08-01T10:08:03;3.20;;;2.60;;
22256;SDS011;11297;42.686;23.374;2022-08-01T10:10:29;4.97;;;2.90;;
22256;SDS011;11297;42.686;23.374;2022-08-01T10:12:57;4.57;;;2.60;;
22256;SDS011;11297;42.686;23.374;2022-08-01T10:15:24;8.70;;;2.97;;
22256;SDS011;11297;42.686;23.374;2022-08-01T10:17:58;3.67;;;2.90;;
22256;SDS011;11297;42.686;23.374;2022-08-01T10:20:27;3.87;;;2.67;;
22256;SDS011;11297;42.686;23.374;2022-08-01T10:22:54;5.43;;;2.67;;
22256;SDS011;11297;42.686;23.374;2022-08-01T10:25:23;3.43;;;1.97;;
22256;SDS011;11297;42.686;23.374;2022-08-01T10:27:52;2.47;;;2.27;;
22256;SDS011;11297;42.686;23.374;2022-08-01T10:30:22;3.23;;;2.17;;
22256;SDS011;11297;42.686;23.374;2022-08-01T10:32:48;2.70;;;2.50;;
22256;SDS011;11297;42.686;23.374;2022-08-01T10:35:17;6.43;;;2.60;;
22256;SDS011;11297;42.686;23.374;2022-08-01T10:37:44;5.07;;;2.37;;
22256;SDS011;11297;42.686;23.374;2022-08-01T10:40:14;4.03;;;2.43;;
22256;SDS011;11297;42.686;23.374;2022-08-01T10:42:44;5.63;;;2.30;;
22256;SDS011;11297;42.686;23.374;2022-08-01T10:45:11;4.07;;;2.20;;
22256;SDS011;11297;42.686;23.374;2022-08-01T10:53:22;4.10;;;2.40;;
22256;SDS011;11297;42.686;23.374;2022-08-01T10:58:21;6.10;;;2.27;;
22256;SDS011;11297;42.686;23.374;2022-08-01T11:00:47;5.10;;;2.70;;
22256;SDS011;11297;42.686;23.374;2022-08-01T11:03:12;4.67;;;2.67;;
22256;SDS011;11297;42.686;23.374;2022-08-01T11:05:38;6.80;;;3.50;;
22256;SDS011;11297;42.686;23.374;2022-08-01T11:08:10;4.07;;;2.37;;
22256;SDS011;11297;42.686;23.374;2022-08-01T11:10:46;2.77;;;2.40;;
22256;SDS011;11297;42.686;23.374;2022-08-01T11:13:12;5.20;;;3.10;;
22256;SDS011;11297;42.686;23.374;2022-08-01T11:15:38;5.43;;;3.10;;
22256;SDS011;11297;42.686;23.374;2022-08-01T11:20:55;3.00;;;2.20;;
22256;SDS011;11297;42.686;23.374;2022-08-01T11:23:22;2.63;;;2.37;;
22256;SDS011;11297;42.686;23.374;2022-08-01T11:30:41;3.97;;;2.43;;
22256;SDS011;11297;42.686;23.374;2022-08-01T11:33:11;3.03;;;2.30;;
22256;SDS011;11297;42.686;23.374;2022-08-01T11:35:38;5.27;;;2.10;;
22256;SDS011;11297;42.686;23.374;2022-08-01T11:38:35;2.50;;;2.30;;
22256;SDS011;11297;42.686;23.374;2022-08-01T11:41:23;4.07;;;2.47;;
22256;SDS011;11297;42.686;23.374;2022-08-01T11:44:00;2.63;;;2.17;;
22256;SDS011;11297;42.686;23.374;2022-08-01T11:52:22;2.60;;;2.40;;
22256;SDS011;11297;42.686;23.374;2022-08-01T11:54:57;3.17;;;2.20;;
22256;SDS011;11297;42.686;23.374;2022-08-01T11:57:30;2.00;;;1.90;;
22256;SDS011;11297;42.686;23.374;2022-08-01T12:00:00;2.40;;;1.90;;
22256;SDS011;11297;42.686;23.374;2022-08-01T12:02:44;2.50;;;2.30;;
22256;SDS011;11297;42.686;23.374;2022-08-01T12:05:12;3.50;;;2.50;;
22256;SDS011;11297;42.686;23.374;2022-08-01T12:07:40;2.70;;;2.50;;
22256;SDS011;11297;42.686;23.374;2022-08-01T12:10:08;3.70;;;2.47;;
22256;SDS011;11297;42.686;23.374;2022-08-01T12:12:35;5.00;;;2.30;;
22256;SDS011;11297;42.686;23.374;2022-08-01T12:15:06;2.90;;;2.20;;
22256;SDS011;11297;42.686;23.374;2022-08-01T12:17:35;4.90;;;2.40;;
22256;SDS011;11297;42.686;23.374;2022-08-01T12:20:04;2.77;;;2.57;;
22256;SDS011;11297;42.686;23.374;2022-08-01T12:22:31;2.67;;;2.47;;
22256;SDS011;11297;42.686;23.374;2022-08-01T12:25:04;2.50;;;2.30;;
22256;SDS011;11297;42.686;23.374;2022-08-01T12:27:40;3.00;;;2.20;;
22256;SDS011;11297;42.686;23.374;2022-08-01T12:30:08;3.13;;;2.53;;
22256;SDS011;11297;42.686;23.374;2022-08-01T12:32:37;4.63;;;2.50;;
22256;SDS011;11297;42.686;23.374;2022-08-01T12:37:42;4.57;;;2.87;;
22256;SDS011;11297;42.686;23.374;2022-08-01T12:40:17;5.43;;;2.97;;
22256;SDS011;11297;42.686;23.374;2022-08-01T12:42:56;2.70;;;2.20;;
22256;SDS011;11297;42.686;23.374;2022-08-01T12:45:28;3.57;;;2.13;;
22256;SDS011;11297;42.686;23.374;2022-08-01T12:47:54;3.00;;;2.40;;
22256;SDS011;11297;42.686;23.374;2022-08-01T12:50:22;2.90;;;2.57;;
22256;SDS011;11297;42.686;23.374;2022-08-01T12:52:50;4.87;;;2.53;;
22256;SDS011;11297;42.686;23.374;2022-08-01T12:57:50;2.70;;;2.43;;
22256;SDS011;11297;42.686;23.374;2022-08-01T13:00:28;2.70;;;2.40;;
22256;SDS011;11297;42.686;23.374;2022-08-01T13:03:02;3.27;;;2.30;;
22256;SDS011;11297;42.686;23.374;2022-08-01T13:08:15;2.43;;;2.30;;
22256;SDS011;11297;42.686;23.374;2022-08-01T13:10:42;2.43;;;2.00;;
22256;SDS011;11297;42.686;23.374;2022-08-01T13:13:08;5.33;;;2.30;;
22256;SDS011;11297;42.686;23.374;2022-08-01T13:15:35;2.63;;;2.43;;
22256;SDS011;11297;42.686;23.374;2022-08-01T13:20:48;2.60;;;2.40;;
22256;SDS011;11297;42.686;23.374;2022-08-01T13:23:14;2.50;;;2.30;;
22256;SDS011;11297;42.686;23.374;2022-08-01T13:26:02;2.10;;;1.90;;
22256;SDS011;11297;42.686;23.374;2022-08-01T13:28:28;2.60;;;2.40;;
22256;SDS011;11297;42.686;23.374;2022-08-01T13:31:00;2.77;;;2.40;;
22256;SDS011;11297;42.686;23.374;2022-08-01T13:33:46;2.40;;;2.20;;
22256;SDS011;11297;42.686;23.374;2022-08-01T13:36:13;2.20;;;2.10;;
22256;SDS011;11297;42.686;23.374;2022-08-01T13:38:40;4.93;;;2.37;;
22256;SDS011;11297;42.686;23.374;2022-08-01T13:41:25;2.80;;;2.27;;
22256;SDS011;11297;42.686;23.374;2022-08-01T13:43:52;2.80;;;2.33;;
22256;SDS011;11297;42.686;23.374;2022-08-01T13:46:19;2.73;;;2.30;;
22256;SDS011;11297;42.686;23.374;2022-08-01T13:48:45;2.63;;;2.43;;
22256;SDS011;11297;42.686;23.374;2022-08-01T13:51:10;2.57;;;2.37;;
22256;SDS011;11297;42.686;23.374;2022-08-01T13:53:36;2.90;;;2.53;;
22256;SDS011;11297;42.686;23.374;2022-08-01T13:56:01;2.97;;;2.67;;
22256;SDS011;11297;42.686;23.374;2022-08-01T13:58:27;2.70;;;2.00;;
22256;SDS011;11297;42.686;23.374;2022-08-01T14:00:53;6.07;;;2.30;;
22256;SDS011;11297;42.686;23.374;2022-08-01T14:03:21;4.93;;;2.27;;
22256;SDS011;11297;42.686;23.374;2022-08-01T14:05:47;3.37;;;2.30;;
22256;SDS011;11297;42.686;23.374;2022-08-01T14:08:12;3.47;;;2.60;;
22256;SDS011;11297;42.686;23.374;2022-08-01T14:10:38;2.60;;;2.10;;
22256;SDS011;11297;42.686;23.374;2022-08-01T14:13:03;2.57;;;2.37;;
22256;SDS011;11297;42.686;23.374;2022-08-01T14:15:29;4.10;;;2.17;;
22256;SDS011;11297;42.686;23.374;2022-08-01T14:17:56;2.17;;;2.07;;
22256;SDS011;11297;42.686;23.374;2022-08-01T14:20:22;3.10;;;2.10;;
22256;SDS011;11297;42.686;23.374;2022-08-01T14:22:47;3.03;;;2.73;;
22256;SDS011;11297;42.686;23.374;2022-08-01T14:25:14;3.27;;;2.20;;
22256;SDS011;11297;42.686;23.374;2022-08-01T14:27:40;4.27;;;2.73;;
22256;SDS011;11297;42.686;23.374;2022-08-01T14:30:07;5.23;;;2.37;;
22256;SDS011;11297;42.686;23.374;2022-08-01T14:32:33;3.40;;;2.27;;
22256;SDS011;11297;42.686;23.374;2022-08-01T14:35:00;2.80;;;2.60;;
22256;SDS011;11297;42.686;23.374;2022-08-01T14:37:29;2.77;;;2.47;;
22256;SDS011;11297;42.686;23.374;2022-08-01T14:39:55;2.77;;;2.57;;
22256;SDS011;11297;42.686;23.374;2022-08-01T14:42:22;4.67;;;2.70;;
22256;SDS011;11297;42.686;23.374;2022-08-01T14:44:47;2.40;;;2.20;;
22256;SDS011;11297;42.686;23.374;2022-08-01T14:47:13;2.20;;;2.10;;
22256;SDS011;11297;42.686;23.374;2022-08-01T14:49:39;1.90;;;1.80;;
22256;SDS011;11297;42.686;23.374;2022-08-01T14:52:04;2.47;;;2.27;;
22256;SDS011;11297;42.686;23.374;2022-08-01T14:54:30;5.23;;;3.47;;
22256;SDS011;11297;42.686;23.374;2022-08-01T14:56:55;8.43;;;4.60;;
22256;SDS011;11297;42.686;23.374;2022-08-01T14:59:21;4.50;;;2.20;;
22256;SDS011;11297;42.686;23.374;2022-08-01T15:01:46;2.80;;;2.60;;
22256;SDS011;11297;42.686;23.374;2022-08-01T15:04:11;3.23;;;3.00;;
22256;SDS011;11297;42.686;23.374;2022-08-01T15:06:37;2.53;;;2.33;;
22256;SDS011;11297;42.686;23.374;2022-08-01T15:09:03;2.47;;;2.10;;
22256;SDS011;11297;42.686;23.374;2022-08-01T15:11:28;2.93;;;1.97;;
22256;SDS011;11297;42.686;23.374;2022-08-01T15:13:54;3.20;;;2.47;;
22256;SDS011;11297;42.686;23.374;2022-08-01T15:16:38;3.20;;;2.17;;
22256;SDS011;11297;42.686;23.374;2022-08-01T15:19:03;6.47;;;3.07;;
22256;SDS011;11297;42.686;23.374;2022-08-01T15:21:29;2.30;;;2.10;;
22256;SDS011;11297;42.686;23.374;2022-08-01T15:23:54;2.43;;;2.20;;